sensor_id;sensor_type;location;lat;lon;timestamp;P1;durP1;ratioP1;P2;durP2;ratioP2
26098;SDS011;13860;52.370;6.764;2024-01-06T00:02:57;17.17;;;9.45;;
26098;SDS011;13860;52.370;6.764;2024-01-06T00:06:03;16.95;;;9.10;;
26098;SDS011;13860;52.370;6.764;2024-01-06T00:09:15;14.48;;;8.30;;
26098;SDS011;13860;52.370;6.764;2024-01-06T00:12:21;15.95;;;9.07;;
26098;SDS011;13860;52.370;6.764;2024-01-06T00:15:28;14.20;;;8.57;;
26098;SDS011;13860;52.370;6.764;2024-01-06T00:18:34;13.57;;;8.35;;
26098;SDS011;13860;52.370;6.764;2024-01-06T00:21:42;14.02;;;8.52;;
26098;SDS011;13860;52.370;6.764;2024-01-06T00:24:52;15.50;;;9.23;;
26098;SDS011;13860;52.370;6.764;2024-01-06T00:28:00;21.77;;;9.05;;
26098;SDS011;13860;52.370;6.764;2024-01-06T00:31:06;17.48;;;8.93;;
26098;SDS011;13860;52.370;6.764;2024-01-06T00:34:13;13.77;;;8.77;;
26098;SDS011;13860;52.370;6.764;2024-01-06T00:37:20;14.30;;;8.13;;
26098;SDS011;13860;52.370;6.764;2024-01-06T00:40:30;13.77;;;8.30;;
26098;SDS011;13860;52.370;6.764;2024-01-06T00:43:36;15.77;;;7.63;;
26098;SDS011;13860;52.370;6.764;2024-01-06T00:46:44;16.67;;;8.45;;
26098;SDS011;13860;52.370;6.764;2024-01-06T00:49:50;13.43;;;7.95;;
26098;SDS011;13860;52.370;6.764;2024-01-06T00:52:58;14.85;;;7.10;;
26098;SDS011;13860;52.370;6.764;2024-01-06T00:56:06;11.02;;;7.55;;
26098;SDS011;13860;52.370;6.764;2024-01-06T00:59:14;13.13;;;7.82;;
26098;SDS011;13860;52.370;6.764;2024-01-06T01:02:19;13.55;;;7.72;;
26098;SDS011;13860;52.370;6.764;2024-01-06T01:05:28;13.05;;;7.45;;
26098;SDS011;13860;52.370;6.764;2024-01-06T01:08:34;15.00;;;8.65;;
26098;SDS011;13860;52.370;6.764;2024-01-06T01:11:46;15.98;;;9.75;;
26098;SDS011;13860;52.370;6.764;2024-01-06T01:14:52;16.25;;;10.10;;
26098;SDS011;13860;52.370;6.764;2024-01-06T01:18:00;18.33;;;10.55;;
26098;SDS011;13860;52.370;6.764;2024-01-06T01:21:06;21.42;;;10.20;;
26098;SDS011;13860;52.370;6.764;2024-01-06T01:24:13;17.63;;;9.73;;
26098;SDS011;13860;52.370;6.764;2024-01-06T01:27:21;21.35;;;11.20;;
26098;SDS011;13860;52.370;6.764;2024-01-06T01:30:29;23.77;;;10.93;;
26098;SDS011;13860;52.370;6.764;2024-01-06T01:33:36;18.50;;;10.38;;
26098;SDS011;13860;52.370;6.764;2024-01-06T01:36:43;19.35;;;10.20;;
26098;SDS011;13860;52.370;6.764;2024-01-06T01:39:49;16.30;;;9.90;;
26098;SDS011;13860;52.370;6.764;2024-01-06T01:42:59;16.13;;;9.30;;
26098;SDS011;13860;52.370;6.764;2024-01-06T01:46:05;20.65;;;10.27;;
26098;SDS011;13860;52.370;6.764;2024-01-06T01:49:13;14.77;;;8.75;;
26098;SDS011;13860;52.370;6.764;2024-01-06T01:52:22;13.55;;;7.82;;
26098;SDS011;13860;52.370;6.764;2024-01-06T01:55:29;12.00;;;7.35;;
26098;SDS011;13860;52.370;6.764;2024-01-06T01:58:38;17.73;;;7.80;;
26098;SDS011;13860;52.370;6.764;2024-01-06T02:01:46;14.75;;;7.10;;
26098;SDS011;13860;52.370;6.764;2024-01-06T02:04:52;15.27;;;7.25;;
26098;SDS011;13860;52.370;6.764;2024-01-06T02:07:59;11.20;;;6.47;;
26098;SDS011;13860;52.370;6.764;2024-01-06T02:11:05;15.32;;;7.40;;
26098;SDS011;13860;52.370;6.764;2024-01-06T02:14:15;13.20;;;7.03;;
26098;SDS011;13860;52.370;6.764;2024-01-06T02:17:21;18.23;;;8.93;;
26098;SDS011;13860;52.370;6.764;2024-01-06T02:20:30;13.38;;;7.75;;
26098;SDS011;13860;52.370;6.764;2024-01-06T02:23:38;14.60;;;8.63;;
26098;SDS011;13860;52.370;6.764;2024-01-06T02:26:54;14.73;;;8.48;;
26098;SDS011;13860;52.370;6.764;2024-01-06T02:30:01;18.13;;;10.55;;
26098;SDS011;13860;52.370;6.764;2024-01-06T02:33:10;18.75;;;10.50;;
26098;SDS011;13860;52.370;6.764;2024-01-06T02:36:16;16.23;;;10.07;;
26098;SDS011;13860;52.370;6.764;2024-01-06T02:39:27;17.35;;;10.15;;
26098;SDS011;13860;52.370;6.764;2024-01-06T02:42:32;16.13;;;10.18;;
26098;SDS011;13860;52.370;6.764;2024-01-06T02:45:40;16.80;;;10.82;;
26098;SDS011;13860;52.370;6.764;2024-01-06T02:48:46;22.27;;;10.65;;
26098;SDS011;13860;52.370;6.764;2024-01-06T02:51:54;16.83;;;9.27;;
26098;SDS011;13860;52.370;6.764;2024-01-06T02:55:02;19.60;;;10.90;;
26098;SDS011;13860;52.370;6.764;2024-01-06T02:58:10;15.50;;;9.35;;
26098;SDS011;13860;52.370;6.764;2024-01-06T03:01:17;17.15;;;10.25;;
26098;SDS011;13860;52.370;6.764;2024-01-06T03:04:24;15.48;;;9.55;;
26098;SDS011;13860;52.370;6.764;2024-01-06T03:07:30;17.15;;;10.15;;
26098;SDS011;13860;52.370;6.764;2024-01-06T03:10:43;16.55;;;9.80;;
26098;SDS011;13860;52.370;6.764;2024-01-06T03:13:49;14.63;;;9.38;;
26098;SDS011;13860;52.370;6.764;2024-01-06T03:16:56;22.60;;;11.07;;
26098;SDS011;13860;52.370;6.764;2024-01-06T03:20:05;18.45;;;11.00;;
26098;SDS011;13860;52.370;6.764;2024-01-06T03:23:14;19.27;;;11.02;;
26098;SDS011;13860;52.370;6.764;2024-01-06T03:26:22;22.20;;;11.98;;
26098;SDS011;13860;52.370;6.764;2024-01-06T03:29:29;20.55;;;10.63;;
26098;SDS011;13860;52.370;6.764;2024-01-06T03:32:35;21.92;;;12.25;;
26098;SDS011;13860;52.370;6.764;2024-01-06T03:35:42;23.02;;;12.52;;
26098;SDS011;13860;52.370;6.764;2024-01-06T03:38:48;21.92;;;11.63;;
26098;SDS011;13860;52.370;6.764;2024-01-06T03:41:59;19.30;;;11.32;;
26098;SDS011;13860;52.370;6.764;2024-01-06T03:45:06;22.08;;;11.55;;
26098;SDS011;13860;52.370;6.764;2024-01-06T03:48:14;21.30;;;11.50;;
26098;SDS011;13860;52.370;6.764;2024-01-06T03:51:20;19.05;;;11.55;;
26098;SDS011;13860;52.370;6.764;2024-01-06T03:54:27;18.30;;;11.27;;
26098;SDS011;13860;52.370;6.764;2024-01-06T03:57:36;17.20;;;10.52;;
26098;SDS011;13860;52.370;6.764;2024-01-06T04:00:46;18.13;;;10.95;;
26098;SDS011;13860;52.370;6.764;2024-01-06T04:03:52;20.10;;;11.27;;
26098;SDS011;13860;52.370;6.764;2024-01-06T04:06:59;21.08;;;11.07;;
26098;SDS011;13860;52.370;6.764;2024-01-06T04:10:06;20.05;;;11.77;;
26098;SDS011;13860;52.370;6.764;2024-01-06T04:13:17;24.75;;;12.55;;
26098;SDS011;13860;52.370;6.764;2024-01-06T04:16:22;21.67;;;12.65;;
26098;SDS011;13860;52.370;6.764;2024-01-06T04:19:30;24.90;;;12.88;;
26098;SDS011;13860;52.370;6.764;2024-01-06T04:22:35;22.98;;;12.48;;
26098;SDS011;13860;52.370;6.764;2024-01-06T04:25:43;23.42;;;12.77;;
26098;SDS011;13860;52.370;6.764;2024-01-06T04:28:51;22.63;;;12.35;;
26098;SDS011;13860;52.370;6.764;2024-01-06T04:32:01;22.25;;;12.60;;
26098;SDS011;13860;52.370;6.764;2024-01-06T04:35:07;25.73;;;14.15;;
26098;SDS011;13860;52.370;6.764;2024-01-06T04:38:15;22.80;;;13.40;;
26098;SDS011;13860;52.370;6.764;2024-01-06T04:41:20;25.55;;;13.88;;
26098;SDS011;13860;52.370;6.764;2024-01-06T04:44:31;25.90;;;13.65;;
26098;SDS011;13860;52.370;6.764;2024-01-06T04:47:36;22.08;;;12.70;;
26098;SDS011;13860;52.370;6.764;2024-01-06T04:50:44;27.20;;;15.32;;
26098;SDS011;13860;52.370;6.764;2024-01-06T04:53:49;23.38;;;13.88;;
26098;SDS011;13860;52.370;6.764;2024-01-06T04:56:57;26.20;;;14.00;;
26098;SDS011;13860;52.370;6.764;2024-01-06T05:00:06;23.13;;;12.23;;
26098;SDS011;13860;52.370;6.764;2024-01-06T05:03:14;23.92;;;12.45;;
26098;SDS011;13860;52.370;6.764;2024-01-06T05:06:20;22.38;;;12.23;;
26098;SDS011;13860;52.370;6.764;2024-01-06T05:09:29;25.77;;;12.60;;
26098;SDS011;13860;52.370;6.764;2024-01-06T05:12:34;26.55;;;13.00;;
26098;SDS011;13860;52.370;6.764;2024-01-06T05:15:45;27.25;;;14.13;;
26098;SDS011;13860;52.370;6.764;2024-01-06T05:18:51;26.67;;;13.32;;
26098;SDS011;13860;52.370;6.764;2024-01-06T05:21:59;29.15;;;13.05;;
26098;SDS011;13860;52.370;6.764;2024-01-06T05:25:04;27.17;;;13.13;;
26098;SDS011;13860;52.370;6.764;2024-01-06T05:28:13;30.92;;;12.77;;
26098;SDS011;13860;52.370;6.764;2024-01-06T05:31:21;23.05;;;12.40;;
26098;SDS011;13860;52.370;6.764;2024-01-06T05:34:32;24.23;;;11.70;;
26098;SDS011;13860;52.370;6.764;2024-01-06T05:37:37;25.10;;;12.50;;
26098;SDS011;13860;52.370;6.764;2024-01-06T05:40:45;28.25;;;13.02;;
26098;SDS011;13860;52.370;6.764;2024-01-06T05:43:51;26.13;;;12.68;;
26098;SDS011;13860;52.370;6.764;2024-01-06T05:47:01;24.00;;;12.65;;
26098;SDS011;13860;52.370;6.764;2024-01-06T05:50:07;25.20;;;12.55;;
26098;SDS011;13860;52.370;6.764;2024-01-06T05:53:15;30.52;;;13.73;;
26098;SDS011;13860;52.370;6.764;2024-01-06T05:56:24;29.10;;;12.45;;
26098;SDS011;13860;52.370;6.764;2024-01-06T05:59:33;29.27;;;14.32;;
26098;SDS011;13860;52.370;6.764;2024-01-06T06:02:42;30.52;;;13.57;;
26098;SDS011;13860;52.370;6.764;2024-01-06T06:05:49;28.55;;;13.85;;
26098;SDS011;13860;52.370;6.764;2024-01-06T06:08:56;27.10;;;13.85;;
26098;SDS011;13860;52.370;6.764;2024-01-06T06:12:04;27.05;;;13.57;;
26098;SDS011;13860;52.370;6.764;2024-01-06T06:15:10;27.90;;;13.98;;
26098;SDS011;13860;52.370;6.764;2024-01-06T06:18:23;30.25;;;14.45;;
26098;SDS011;13860;52.370;6.764;2024-01-06T06:21:29;27.83;;;13.55;;
26098;SDS011;13860;52.370;6.764;2024-01-06T06:24:38;29.55;;;14.40;;
26098;SDS011;13860;52.370;6.764;2024-01-06T06:27:46;27.92;;;14.88;;
26098;SDS011;13860;52.370;6.764;2024-01-06T06:30:54;29.08;;;13.07;;
26098;SDS011;13860;52.370;6.764;2024-01-06T06:34:02;28.75;;;14.32;;
26098;SDS011;13860;52.370;6.764;2024-01-06T06:37:12;30.38;;;14.50;;
26098;SDS011;13860;52.370;6.764;2024-01-06T06:40:17;31.42;;;15.20;;
26098;SDS011;13860;52.370;6.764;2024-01-06T06:43:25;30.00;;;13.85;;
26098;SDS011;13860;52.370;6.764;2024-01-06T06:46:30;33.42;;;14.00;;
26098;SDS011;13860;52.370;6.764;2024-01-06T06:49:40;27.77;;;14.13;;
26098;SDS011;13860;52.370;6.764;2024-01-06T06:52:47;31.88;;;15.05;;
26098;SDS011;13860;52.370;6.764;2024-01-06T06:55:56;29.42;;;13.82;;
26098;SDS011;13860;52.370;6.764;2024-01-06T06:59:01;28.08;;;13.63;;
26098;SDS011;13860;52.370;6.764;2024-01-06T07:02:09;27.75;;;14.15;;
26098;SDS011;13860;52.370;6.764;2024-01-06T07:05:17;26.92;;;13.35;;
26098;SDS011;13860;52.370;6.764;2024-01-06T07:08:25;29.25;;;14.00;;
26098;SDS011;13860;52.370;6.764;2024-01-06T07:11:30;27.13;;;13.63;;
26098;SDS011;13860;52.370;6.764;2024-01-06T07:14:38;23.45;;;12.55;;
26098;SDS011;13860;52.370;6.764;2024-01-06T07:17:44;27.50;;;12.38;;
26098;SDS011;13860;52.370;6.764;2024-01-06T07:20:55;23.10;;;11.50;;
26098;SDS011;13860;52.370;6.764;2024-01-06T07:24:01;23.30;;;11.90;;
26098;SDS011;13860;52.370;6.764;2024-01-06T07:27:08;25.63;;;11.10;;
26098;SDS011;13860;52.370;6.764;2024-01-06T07:30:14;17.13;;;10.02;;
26098;SDS011;13860;52.370;6.764;2024-01-06T07:33:22;17.92;;;10.70;;
26098;SDS011;13860;52.370;6.764;2024-01-06T07:36:30;22.40;;;11.38;;
26098;SDS011;13860;52.370;6.764;2024-01-06T07:39:38;21.80;;;10.75;;
26098;SDS011;13860;52.370;6.764;2024-01-06T07:42:44;22.17;;;10.93;;
26098;SDS011;13860;52.370;6.764;2024-01-06T07:45:51;30.33;;;12.30;;
26098;SDS011;13860;52.370;6.764;2024-01-06T07:48:57;22.25;;;12.38;;
26098;SDS011;13860;52.370;6.764;2024-01-06T07:52:08;21.52;;;11.15;;
26098;SDS011;13860;52.370;6.764;2024-01-06T07:55:13;23.17;;;11.60;;
26098;SDS011;13860;52.370;6.764;2024-01-06T07:58:21;18.70;;;10.63;;
26098;SDS011;13860;52.370;6.764;2024-01-06T08:01:27;20.00;;;9.90;;
26098;SDS011;13860;52.370;6.764;2024-01-06T08:04:35;16.35;;;9.18;;
26098;SDS011;13860;52.370;6.764;2024-01-06T08:07:44;20.10;;;9.85;;
26098;SDS011;13860;52.370;6.764;2024-01-06T08:10:51;19.02;;;9.15;;
26098;SDS011;13860;52.370;6.764;2024-01-06T08:13:57;20.63;;;10.57;;
26098;SDS011;13860;52.370;6.764;2024-01-06T08:17:04;20.70;;;9.90;;
26098;SDS011;13860;52.370;6.764;2024-01-06T08:20:10;23.60;;;9.60;;
26098;SDS011;13860;52.370;6.764;2024-01-06T08:23:20;19.73;;;10.50;;
26098;SDS011;13860;52.370;6.764;2024-01-06T08:26:26;19.98;;;10.40;;
26098;SDS011;13860;52.370;6.764;2024-01-06T08:29:33;25.40;;;10.98;;
26098;SDS011;13860;52.370;6.764;2024-01-06T08:32:39;21.27;;;9.52;;
26098;SDS011;13860;52.370;6.764;2024-01-06T08:35:47;20.88;;;11.13;;
26098;SDS011;13860;52.370;6.764;2024-01-06T08:38:55;25.63;;;11.60;;
26098;SDS011;13860;52.370;6.764;2024-01-06T08:42:02;21.30;;;10.48;;
26098;SDS011;13860;52.370;6.764;2024-01-06T08:45:09;23.88;;;11.13;;
26098;SDS011;13860;52.370;6.764;2024-01-06T08:48:19;21.40;;;11.02;;
26098;SDS011;13860;52.370;6.764;2024-01-06T08:51:26;24.95;;;10.07;;
26098;SDS011;13860;52.370;6.764;2024-01-06T08:54:37;25.88;;;10.95;;
26098;SDS011;13860;52.370;6.764;2024-01-06T08:57:43;18.42;;;10.88;;
26098;SDS011;13860;52.370;6.764;2024-01-06T09:00:50;22.08;;;10.30;;
26098;SDS011;13860;52.370;6.764;2024-01-06T09:03:56;23.30;;;10.75;;
26098;SDS011;13860;52.370;6.764;2024-01-06T09:07:04;22.65;;;10.43;;
26098;SDS011;13860;52.370;6.764;2024-01-06T09:10:12;19.10;;;10.85;;
26098;SDS011;13860;52.370;6.764;2024-01-06T09:13:20;22.52;;;11.13;;
26098;SDS011;13860;52.370;6.764;2024-01-06T09:16:26;24.00;;;11.23;;
26098;SDS011;13860;52.370;6.764;2024-01-06T09:19:34;22.45;;;11.52;;
26098;SDS011;13860;52.370;6.764;2024-01-06T09:22:39;25.92;;;11.57;;
26098;SDS011;13860;52.370;6.764;2024-01-06T09:25:49;22.73;;;10.98;;
26098;SDS011;13860;52.370;6.764;2024-01-06T09:28:55;25.17;;;11.23;;
26098;SDS011;13860;52.370;6.764;2024-01-06T09:32:03;25.08;;;12.00;;
26098;SDS011;13860;52.370;6.764;2024-01-06T09:35:09;23.27;;;11.43;;
26098;SDS011;13860;52.370;6.764;2024-01-06T09:38:18;22.35;;;11.07;;
26098;SDS011;13860;52.370;6.764;2024-01-06T09:41:26;20.85;;;11.35;;
26098;SDS011;13860;52.370;6.764;2024-01-06T09:44:34;18.13;;;9.75;;
26098;SDS011;13860;52.370;6.764;2024-01-06T09:47:40;19.73;;;10.80;;
26098;SDS011;13860;52.370;6.764;2024-01-06T09:50:48;17.25;;;10.40;;
26098;SDS011;13860;52.370;6.764;2024-01-06T09:53:59;19.38;;;10.98;;
26098;SDS011;13860;52.370;6.764;2024-01-06T09:57:14;17.45;;;10.23;;
26098;SDS011;13860;52.370;6.764;2024-01-06T10:00:20;24.33;;;13.43;;
26098;SDS011;13860;52.370;6.764;2024-01-06T10:03:28;19.85;;;11.55;;
26098;SDS011;13860;52.370;6.764;2024-01-06T10:06:36;21.73;;;12.40;;
26098;SDS011;13860;52.370;6.764;2024-01-06T10:09:44;20.35;;;11.35;;
26098;SDS011;13860;52.370;6.764;2024-01-06T10:12:52;17.38;;;10.93;;
26098;SDS011;13860;52.370;6.764;2024-01-06T10:16:02;19.23;;;11.23;;
26098;SDS011;13860;52.370;6.764;2024-01-06T10:19:08;23.48;;;13.55;;
26098;SDS011;13860;52.370;6.764;2024-01-06T10:22:15;23.83;;;13.30;;
26098;SDS011;13860;52.370;6.764;2024-01-06T10:25:22;24.05;;;13.70;;
26098;SDS011;13860;52.370;6.764;2024-01-06T10:28:33;24.25;;;13.85;;
26098;SDS011;13860;52.370;6.764;2024-01-06T10:31:38;21.38;;;12.13;;
26098;SDS011;13860;52.370;6.764;2024-01-06T10:34:46;21.60;;;12.10;;
26098;SDS011;13860;52.370;6.764;2024-01-06T10:37:52;24.08;;;11.80;;
26098;SDS011;13860;52.370;6.764;2024-01-06T10:41:03;19.77;;;11.40;;
26098;SDS011;13860;52.370;6.764;2024-01-06T10:44:13;21.15;;;11.15;;
26098;SDS011;13860;52.370;6.764;2024-01-06T10:47:21;19.13;;;11.02;;
26098;SDS011;13860;52.370;6.764;2024-01-06T10:50:28;16.25;;;10.20;;
26098;SDS011;13860;52.370;6.764;2024-01-06T10:53:38;17.15;;;10.00;;
26098;SDS011;13860;52.370;6.764;2024-01-06T10:56:45;14.63;;;9.88;;
26098;SDS011;13860;52.370;6.764;2024-01-06T10:59:56;17.80;;;10.73;;
26098;SDS011;13860;52.370;6.764;2024-01-06T11:03:03;18.25;;;9.98;;
26098;SDS011;13860;52.370;6.764;2024-01-06T11:06:13;14.77;;;9.63;;
26098;SDS011;13860;52.370;6.764;2024-01-06T11:09:21;15.00;;;9.32;;
26098;SDS011;13860;52.370;6.764;2024-01-06T11:12:31;14.23;;;9.48;;
26098;SDS011;13860;52.370;6.764;2024-01-06T11:15:43;15.80;;;9.55;;
26098;SDS011;13860;52.370;6.764;2024-01-06T11:18:52;17.30;;;9.63;;
26098;SDS011;13860;52.370;6.764;2024-01-06T11:21:58;16.85;;;10.60;;
26098;SDS011;13860;52.370;6.764;2024-01-06T11:25:30;30.10;;;16.73;;
26098;SDS011;13860;52.370;6.764;2024-01-06T11:28:42;21.88;;;13.75;;
26098;SDS011;13860;52.370;6.764;2024-01-06T11:35:25;17.70;;;10.40;;
26098;SDS011;13860;52.370;6.764;2024-01-06T11:38:36;20.05;;;11.23;;
26098;SDS011;13860;52.370;6.764;2024-01-06T11:41:47;17.42;;;10.68;;
26098;SDS011;13860;52.370;6.764;2024-01-06T11:44:56;17.42;;;11.57;;
26098;SDS011;13860;52.370;6.764;2024-01-06T11:48:10;18.00;;;10.80;;
26098;SDS011;13860;52.370;6.764;2024-01-06T11:51:18;19.13;;;12.30;;
26098;SDS011;13860;52.370;6.764;2024-01-06T11:54:24;20.38;;;12.20;;
26098;SDS011;13860;52.370;6.764;2024-01-06T11:57:32;22.50;;;13.05;;
26098;SDS011;13860;52.370;6.764;2024-01-06T12:00:37;18.90;;;11.70;;
26098;SDS011;13860;52.370;6.764;2024-01-06T12:03:55;17.52;;;11.43;;
26098;SDS011;13860;52.370;6.764;2024-01-06T12:07:08;21.48;;;12.35;;
26098;SDS011;13860;52.370;6.764;2024-01-06T12:10:19;21.60;;;13.38;;
26098;SDS011;13860;52.370;6.764;2024-01-06T12:13:25;17.58;;;11.88;;
26098;SDS011;13860;52.370;6.764;2024-01-06T12:16:32;19.95;;;11.25;;
26098;SDS011;13860;52.370;6.764;2024-01-06T12:19:41;21.25;;;13.50;;
26098;SDS011;13860;52.370;6.764;2024-01-06T12:22:50;20.45;;;12.57;;
26098;SDS011;13860;52.370;6.764;2024-01-06T12:25:57;23.42;;;12.88;;
26098;SDS011;13860;52.370;6.764;2024-01-06T12:29:07;22.80;;;13.68;;
26098;SDS011;13860;52.370;6.764;2024-01-06T12:32:13;24.77;;;13.77;;
26098;SDS011;13860;52.370;6.764;2024-01-06T12:35:23;24.10;;;13.15;;
26098;SDS011;13860;52.370;6.764;2024-01-06T12:38:29;22.75;;;13.93;;
26098;SDS011;13860;52.370;6.764;2024-01-06T12:41:37;31.67;;;15.02;;
26098;SDS011;13860;52.370;6.764;2024-01-06T12:44:43;21.73;;;13.85;;
26098;SDS011;13860;52.370;6.764;2024-01-06T12:47:50;24.15;;;14.82;;
26098;SDS011;13860;52.370;6.764;2024-01-06T12:50:59;27.08;;;15.25;;
26098;SDS011;13860;52.370;6.764;2024-01-06T12:54:07;24.88;;;13.48;;
26098;SDS011;13860;52.370;6.764;2024-01-06T12:57:12;26.27;;;14.35;;
26098;SDS011;13860;52.370;6.764;2024-01-06T13:00:20;22.65;;;13.20;;
26098;SDS011;13860;52.370;6.764;2024-01-06T13:03:26;21.95;;;13.55;;
26098;SDS011;13860;52.370;6.764;2024-01-06T13:06:36;25.20;;;13.68;;
26098;SDS011;13860;52.370;6.764;2024-01-06T13:09:42;23.35;;;14.75;;
26098;SDS011;13860;52.370;6.764;2024-01-06T13:12:50;25.15;;;14.75;;
26098;SDS011;13860;52.370;6.764;2024-01-06T13:15:55;23.42;;;14.32;;
26098;SDS011;13860;52.370;6.764;2024-01-06T13:19:03;23.17;;;13.15;;
26098;SDS011;13860;52.370;6.764;2024-01-06T13:22:12;24.13;;;14.23;;
26098;SDS011;13860;52.370;6.764;2024-01-06T13:25:22;25.60;;;14.48;;
26098;SDS011;13860;52.370;6.764;2024-01-06T13:28:28;23.17;;;14.48;;
26098;SDS011;13860;52.370;6.764;2024-01-06T13:31:36;24.98;;;14.32;;
26098;SDS011;13860;52.370;6.764;2024-01-06T13:34:42;26.02;;;14.43;;
26098;SDS011;13860;52.370;6.764;2024-01-06T13:37:52;27.95;;;15.57;;
26098;SDS011;13860;52.370;6.764;2024-01-06T13:40:58;27.63;;;15.73;;
26098;SDS011;13860;52.370;6.764;2024-01-06T13:44:07;28.77;;;16.65;;
26098;SDS011;13860;52.370;6.764;2024-01-06T13:47:12;29.83;;;17.58;;
26098;SDS011;13860;52.370;6.764;2024-01-06T13:50:21;27.98;;;15.88;;
26098;SDS011;13860;52.370;6.764;2024-01-06T13:53:29;25.63;;;15.10;;
26098;SDS011;13860;52.370;6.764;2024-01-06T13:56:37;27.42;;;14.90;;
26098;SDS011;13860;52.370;6.764;2024-01-06T13:59:44;26.27;;;15.15;;
26098;SDS011;13860;52.370;6.764;2024-01-06T14:02:52;33.60;;;15.88;;
26098;SDS011;13860;52.370;6.764;2024-01-06T14:05:58;25.65;;;14.68;;
26098;SDS011;13860;52.370;6.764;2024-01-06T14:09:10;27.50;;;14.90;;
26098;SDS011;13860;52.370;6.764;2024-01-06T14:12:16;29.75;;;15.48;;
26098;SDS011;13860;52.370;6.764;2024-01-06T14:15:23;27.83;;;14.43;;
26098;SDS011;13860;52.370;6.764;2024-01-06T14:18:31;26.10;;;14.27;;
26098;SDS011;13860;52.370;6.764;2024-01-06T14:21:39;24.48;;;13.98;;
26098;SDS011;13860;52.370;6.764;2024-01-06T14:24:47;25.67;;;14.57;;
26098;SDS011;13860;52.370;6.764;2024-01-06T14:27:55;24.55;;;14.30;;
26098;SDS011;13860;52.370;6.764;2024-01-06T14:31:02;24.85;;;14.52;;
26098;SDS011;13860;52.370;6.764;2024-01-06T14:34:13;24.02;;;13.52;;
26098;SDS011;13860;52.370;6.764;2024-01-06T14:37:19;21.10;;;13.63;;
26098;SDS011;13860;52.370;6.764;2024-01-06T14:40:29;22.73;;;13.10;;
26098;SDS011;13860;52.370;6.764;2024-01-06T14:43:36;21.02;;;13.52;;
26098;SDS011;13860;52.370;6.764;2024-01-06T14:46:44;20.98;;;12.25;;
26098;SDS011;13860;52.370;6.764;2024-01-06T14:49:50;21.63;;;12.52;;
26098;SDS011;13860;52.370;6.764;2024-01-06T14:52:59;27.30;;;14.32;;
26098;SDS011;13860;52.370;6.764;2024-01-06T14:56:08;26.63;;;15.25;;
26098;SDS011;13860;52.370;6.764;2024-01-06T14:59:15;26.40;;;15.75;;
26098;SDS011;13860;52.370;6.764;2024-01-06T15:02:22;36.83;;;18.08;;
26098;SDS011;13860;52.370;6.764;2024-01-06T15:05:30;30.45;;;16.58;;
26098;SDS011;13860;52.370;6.764;2024-01-06T15:08:36;30.40;;;16.85;;
26098;SDS011;13860;52.370;6.764;2024-01-06T15:11:46;25.00;;;13.88;;
26098;SDS011;13860;52.370;6.764;2024-01-06T15:14:52;22.75;;;13.80;;
26098;SDS011;13860;52.370;6.764;2024-01-06T15:18:00;26.77;;;14.88;;
26098;SDS011;13860;52.370;6.764;2024-01-06T15:21:05;26.27;;;14.15;;
26098;SDS011;13860;52.370;6.764;2024-01-06T15:24:13;30.50;;;14.63;;
26098;SDS011;13860;52.370;6.764;2024-01-06T15:27:22;25.63;;;13.52;;
26098;SDS011;13860;52.370;6.764;2024-01-06T15:30:30;26.40;;;14.75;;
26098;SDS011;13860;52.370;6.764;2024-01-06T15:33:35;30.42;;;14.43;;
26098;SDS011;13860;52.370;6.764;2024-01-06T15:36:46;31.55;;;14.23;;
26098;SDS011;13860;52.370;6.764;2024-01-06T15:39:56;26.15;;;14.85;;
26098;SDS011;13860;52.370;6.764;2024-01-06T15:43:07;28.58;;;14.60;;
26098;SDS011;13860;52.370;6.764;2024-01-06T15:46:12;26.80;;;15.73;;
26098;SDS011;13860;52.370;6.764;2024-01-06T15:49:21;31.48;;;15.35;;
26098;SDS011;13860;52.370;6.764;2024-01-06T15:52:29;30.52;;;15.45;;
26098;SDS011;13860;52.370;6.764;2024-01-06T15:55:37;29.55;;;16.00;;
26098;SDS011;13860;52.370;6.764;2024-01-06T15:58:45;28.20;;;15.75;;
26098;SDS011;13860;52.370;6.764;2024-01-06T16:01:53;31.80;;;16.67;;
26098;SDS011;13860;52.370;6.764;2024-01-06T16:04:59;28.83;;;16.85;;
26098;SDS011;13860;52.370;6.764;2024-01-06T16:08:08;27.73;;;15.13;;
26098;SDS011;13860;52.370;6.764;2024-01-06T16:11:14;28.48;;;15.43;;
26098;SDS011;13860;52.370;6.764;2024-01-06T16:14:25;27.83;;;14.95;;
26098;SDS011;13860;52.370;6.764;2024-01-06T16:17:34;29.83;;;15.20;;
26098;SDS011;13860;52.370;6.764;2024-01-06T16:20:42;25.55;;;13.85;;
26098;SDS011;13860;52.370;6.764;2024-01-06T16:23:48;26.08;;;14.32;;
26098;SDS011;13860;52.370;6.764;2024-01-06T16:26:55;27.40;;;14.13;;
26098;SDS011;13860;52.370;6.764;2024-01-06T16:30:05;24.90;;;14.45;;
26098;SDS011;13860;52.370;6.764;2024-01-06T16:33:14;25.95;;;13.38;;
26098;SDS011;13860;52.370;6.764;2024-01-06T16:36:20;26.15;;;13.77;;
26098;SDS011;13860;52.370;6.764;2024-01-06T16:39:29;21.67;;;13.35;;
26098;SDS011;13860;52.370;6.764;2024-01-06T16:42:35;23.45;;;12.55;;
26098;SDS011;13860;52.370;6.764;2024-01-06T16:45:47;21.23;;;11.85;;
26098;SDS011;13860;52.370;6.764;2024-01-06T16:48:52;19.40;;;11.65;;
26098;SDS011;13860;52.370;6.764;2024-01-06T16:52:00;19.42;;;11.13;;
26098;SDS011;13860;52.370;6.764;2024-01-06T16:55:06;22.50;;;11.40;;
26098;SDS011;13860;52.370;6.764;2024-01-06T16:58:14;22.33;;;12.02;;
26098;SDS011;13860;52.370;6.764;2024-01-06T17:01:23;21.75;;;11.27;;
26098;SDS011;13860;52.370;6.764;2024-01-06T17:04:33;21.38;;;12.15;;
26098;SDS011;13860;52.370;6.764;2024-01-06T17:07:39;20.00;;;11.25;;
26098;SDS011;13860;52.370;6.764;2024-01-06T17:10:51;19.15;;;10.70;;
26098;SDS011;13860;52.370;6.764;2024-01-06T17:13:56;24.48;;;11.95;;
26098;SDS011;13860;52.370;6.764;2024-01-06T17:17:07;20.55;;;12.00;;
26098;SDS011;13860;52.370;6.764;2024-01-06T17:20:17;21.98;;;13.10;;
26098;SDS011;13860;52.370;6.764;2024-01-06T17:23:24;19.35;;;11.57;;
26098;SDS011;13860;52.370;6.764;2024-01-06T17:26:32;22.70;;;11.82;;
26098;SDS011;13860;52.370;6.764;2024-01-06T17:29:40;21.88;;;12.27;;
26098;SDS011;13860;52.370;6.764;2024-01-06T17:32:48;22.92;;;12.05;;
26098;SDS011;13860;52.370;6.764;2024-01-06T17:35:58;21.03;;;12.00;;
26098;SDS011;13860;52.370;6.764;2024-01-06T17:39:04;20.77;;;12.88;;
26098;SDS011;13860;52.370;6.764;2024-01-06T17:42:13;23.75;;;13.93;;
26098;SDS011;13860;52.370;6.764;2024-01-06T17:45:19;23.45;;;13.05;;
26098;SDS011;13860;52.370;6.764;2024-01-06T17:48:30;24.75;;;12.73;;
26098;SDS011;13860;52.370;6.764;2024-01-06T17:51:36;24.45;;;14.30;;
26098;SDS011;13860;52.370;6.764;2024-01-06T17:54:44;23.42;;;12.38;;
26098;SDS011;13860;52.370;6.764;2024-01-06T17:57:49;22.33;;;12.70;;
26098;SDS011;13860;52.370;6.764;2024-01-06T18:00:57;23.25;;;13.15;;
26098;SDS011;13860;52.370;6.764;2024-01-06T18:04:05;19.45;;;11.65;;
26098;SDS011;13860;52.370;6.764;2024-01-06T18:07:13;24.13;;;12.70;;
26098;SDS011;13860;52.370;6.764;2024-01-06T18:10:19;28.65;;;14.07;;
26098;SDS011;13860;52.370;6.764;2024-01-06T18:13:26;27.42;;;14.10;;
26098;SDS011;13860;52.370;6.764;2024-01-06T18:16:32;26.52;;;14.07;;
26098;SDS011;13860;52.370;6.764;2024-01-06T18:19:42;25.40;;;13.65;;
26098;SDS011;13860;52.370;6.764;2024-01-06T18:22:48;25.15;;;13.45;;
26098;SDS011;13860;52.370;6.764;2024-01-06T18:25:55;25.00;;;13.82;;